Knightdale, NC (27545)

12:37 AM EST on November 27, 2014 (GMT -0500)
Sandy Trail/Carriage Manor | Change Station
CLOSE
Current Station
Personal Weather Station
Location: Knightdale, NC
Elevation: 289 ft
Nearby Weather Stations

Elev 289 ft 35.77 °N, 78.45 °W | Updated 32 seconds ago

Fog
Fog
36.3 °F
Feels Like 36 °F
N
0.0
Wind Variable Wind from ESE
Gusts 1.0 mph

Today
High -- | Low -- °F
--% Chance of Precip.
Yesterday
High -- | Low -- °F
Precip. -- in
7:01 AM 5:01 PM
Waxing Crescent, 26% visible
Pressure 30.05 in
Visibility 5.0 miles
Clouds Scattered Clouds 7000 ft
Scattered Clouds 12000 ft
Windchill 36 °F
Dew Point 36 °F
Humidity 97%
Rainfall 0.00 in
Snow Depth Not available.
UV 0 out of 12
Pollen .10 out of 12
Air Quality Not available.
Flu Activity Not available.
METAR KLHZ 270515Z AUTO 00000KT 5SM BR SCT070 SCT120 01/01 A3005 RMK AO2

More Conditions Fewer Conditions

Pressure 30.05 in
Visibility 5.0 miles
Clouds Scattered Clouds 7000 ft
Scattered Clouds 12000 ft
Windchill 36 °F
Dew Point 36 °F
Humidity 97%
Rainfall 0.00 in
Snow Depth Not available.
UV 0 out of 12
Pollen .10 out of 12
Air Quality Not available.
Flu Activity Not available.
METAR KLHZ 270515Z AUTO 00000KT 5SM BR SCT070 SCT120 01/01 A3005 RMK AO2

More Conditions Fewer Conditions

10-Day Weather Forecast

Almanac

Astronomy

Nov. 27, 2014 Rise Set
Actual Time
Civil Twilight
Nautical Twilight
Astronomical Twilight
Moon
Length of Visible Light
Length of Day
Tomorrow will be .
, % of the Moon is Illuminated

Today's Extremes

State Highs State Lows

Community

WunderPhotos

Upload Photos

1,773,960 photos uploaded!

WunderBlogs® & News

Nearby

Air Quality

  Air Quality AQ Index Pollutant
Not available.

Snow Depth

Station Depth Elevation

Earthquake Activity

City Distance Mag. Time & Date
Minimum magnitude displayed is 2.5.

Coastal Water Temperatures

Place Temperature

Nearby Weather Stations